LIRZ/PEG METAR and TAF weather

Enter ICAO airport designator
Station Type Date Time Source
LIRZ METAR 2021/04/17 01:50 UTC NOAA

LIRZ 170150Z AUTO 03008KT //// // NCD 04/M02 Q1014


Station Type Date Time Source
LIRZ Decoded METAR 2021/04/17 01:50 UTC NOAA

Perugia, Italy (LIRZ) 43-05N 012-30E 205M
Apr 16, 2021 - 09:50 PM EDT / 2021.04.17 0150 UTC
Wind: from the NNE (030 degrees) at 9 MPH (8 KT):0
Temperature: 39 F (4 C)
Dew Point: 28 F (-2 C)
Relative Humidity: 64%
Pressure (altimeter): 29.94 in. Hg (1014 hPa)
ob: LIRZ 170150Z AUTO 03008KT //// // NCD 04/M02 Q1014
cycle: 2

Station Type Date Time Source
LIRZ TAF 2021/04/16 18:21 UTC NOAA

TAF LIRZ 161700Z 1618/1718 03010KT 9999 SCT030
BECMG 1618/1620 VRB05KT

Example: see airport list